Terminal Aerodrome Forecast
Issued by NWS

Home | Current Version | Previous Version | Text Only | Print | Product List | Glossary On
Versions: 1 2 3 4 5 6 7 8 9 10 11 12 13 14 15 16 17 18 19 20
000
FTUS44 KLZK 282300 RRA
TAFHOT
TAF
KHOT 282343Z 2900/2924 VRB03KT P6SM BKN070
     FM290800 00000KT P6SM FEW015 SCT070
      TEMPO 2908/2911 4SM BR BKN015
     FM291100 00000KT 2SM BR BKN015
      TEMPO 2911/2914 1/2SM FG
     FM291400 07002KT P6SM BKN015
     FM292000 08005KT P6SM BKN250=

USA.gov is the U.S. government's official web portal to all federal, state and local government web resources and services.